sensor_id;sensor_type;location;lat;lon;timestamp;pressure;altitude;pressure_sealevel;temperature;humidity
71791;BME280;59638;52.126;5.434;2022-12-29T00:01:54;100096.94;;;10.49;100.00
71791;BME280;59638;52.126;5.434;2022-12-29T00:04:21;100081.53;;;10.62;100.00
71791;BME280;59638;52.126;5.434;2022-12-29T00:06:48;100075.63;;;10.69;100.00
71791;BME280;59638;52.126;5.434;2022-12-29T00:09:15;100074.16;;;10.74;100.00
71791;BME280;59638;52.126;5.434;2022-12-29T00:11:42;100078.44;;;10.67;100.00
71791;BME280;59638;52.126;5.434;2022-12-29T00:14:10;100067.69;;;10.69;100.00
71791;BME280;59638;52.126;5.434;2022-12-29T00:16:55;100058.81;;;10.70;100.00
71791;BME280;59638;52.126;5.434;2022-12-29T00:19:23;100061.66;;;10.76;100.00
71791;BME280;59638;52.126;5.434;2022-12-29T00:22:13;100049.94;;;10.79;100.00
71791;BME280;59638;52.126;5.434;2022-12-29T00:24:59;100045.66;;;10.78;100.00
71791;BME280;59638;52.126;5.434;2022-12-29T00:27:44;100045.69;;;10.86;100.00
71791;BME280;59638;52.126;5.434;2022-12-29T00:30:33;100053.28;;;10.89;100.00
71791;BME280;59638;52.126;5.434;2022-12-29T00:33:19;100034.78;;;10.89;100.00
71791;BME280;59638;52.126;5.434;2022-12-29T00:36:12;100040.06;;;10.89;100.00
71791;BME280;59638;52.126;5.434;2022-12-29T00:38:53;100037.13;;;10.92;100.00
71791;BME280;59638;52.126;5.434;2022-12-29T00:41:40;100030.84;;;10.93;100.00
71791;BME280;59638;52.126;5.434;2022-12-29T00:44:25;100033.66;;;10.92;100.00
71791;BME280;59638;52.126;5.434;2022-12-29T00:46:52;100027.56;;;10.99;100.00
71791;BME280;59638;52.126;5.434;2022-12-29T00:49:18;100010.44;;;11.03;100.00
71791;BME280;59638;52.126;5.434;2022-12-29T00:54:28;100010.38;;;10.87;100.00
71791;BME280;59638;52.126;5.434;2022-12-29T00:56:55;99995.53;;;10.94;100.00
71791;BME280;59638;52.126;5.434;2022-12-29T00:59:22;99990.25;;;10.94;100.00
71791;BME280;59638;52.126;5.434;2022-12-29T01:01:51;99994.91;;;11.00;100.00
71791;BME280;59638;52.126;5.434;2022-12-29T01:04:20;99989.13;;;10.97;100.00
71791;BME280;59638;52.126;5.434;2022-12-29T01:06:46;99984.59;;;10.81;100.00
71791;BME280;59638;52.126;5.434;2022-12-29T01:09:13;99980.09;;;10.65;100.00
71791;BME280;59638;52.126;5.434;2022-12-29T01:11:59;99984.56;;;10.65;100.00
71791;BME280;59638;52.126;5.434;2022-12-29T01:14:26;99981.94;;;10.65;100.00
71791;BME280;59638;52.126;5.434;2022-12-29T01:16:52;99971.72;;;10.70;100.00
71791;BME280;59638;52.126;5.434;2022-12-29T01:19:20;99969.03;;;10.61;100.00
71791;BME280;59638;52.126;5.434;2022-12-29T01:21:47;99966.94;;;10.31;100.00
71791;BME280;59638;52.126;5.434;2022-12-29T01:24:15;99967.63;;;10.15;100.00
71791;BME280;59638;52.126;5.434;2022-12-29T01:26:42;99971.66;;;10.01;100.00
71791;BME280;59638;52.126;5.434;2022-12-29T01:29:09;99958.44;;;9.93;100.00
71791;BME280;59638;52.126;5.434;2022-12-29T01:31:36;99967.94;;;9.86;100.00
71791;BME280;59638;52.126;5.434;2022-12-29T01:34:03;99968.84;;;9.77;100.00
71791;BME280;59638;52.126;5.434;2022-12-29T01:36:29;99978.72;;;9.75;100.00
71791;BME280;59638;52.126;5.434;2022-12-29T01:38:56;99966.16;;;9.69;100.00
71791;BME280;59638;52.126;5.434;2022-12-29T01:41:23;99967.81;;;9.70;100.00
71791;BME280;59638;52.126;5.434;2022-12-29T01:43:57;99977.25;;;9.72;100.00
71791;BME280;59638;52.126;5.434;2022-12-29T01:49:16;99972.03;;;9.63;100.00
71791;BME280;59638;52.126;5.434;2022-12-29T01:52:06;99977.31;;;9.63;100.00
71791;BME280;59638;52.126;5.434;2022-12-29T01:54:39;99978.97;;;9.64;100.00
71791;BME280;59638;52.126;5.434;2022-12-29T01:57:11;99981.97;;;9.69;100.00
71791;BME280;59638;52.126;5.434;2022-12-29T01:59:44;99977.91;;;9.74;100.00
71791;BME280;59638;52.126;5.434;2022-12-29T02:02:12;99976.75;;;9.77;100.00
71791;BME280;59638;52.126;5.434;2022-12-29T02:04:41;99983.22;;;9.82;100.00
71791;BME280;59638;52.126;5.434;2022-12-29T02:07:17;99979.31;;;9.87;100.00
71791;BME280;59638;52.126;5.434;2022-12-29T02:09:47;99997.31;;;9.91;100.00
71791;BME280;59638;52.126;5.434;2022-12-29T02:12:16;99984.75;;;9.85;100.00
71791;BME280;59638;52.126;5.434;2022-12-29T02:14:44;99980.81;;;9.89;100.00
71791;BME280;59638;52.126;5.434;2022-12-29T02:17:14;99985.41;;;9.87;100.00
71791;BME280;59638;52.126;5.434;2022-12-29T02:26:01;99987.69;;;9.82;100.00
71791;BME280;59638;52.126;5.434;2022-12-29T02:32:01;99989.03;;;9.86;100.00
71791;BME280;59638;52.126;5.434;2022-12-29T02:34:47;100006.06;;;9.92;100.00
71791;BME280;59638;52.126;5.434;2022-12-29T02:37:20;99992.56;;;9.95;100.00
71791;BME280;59638;52.126;5.434;2022-12-29T02:40:12;99991.34;;;9.89;100.00
71791;BME280;59638;52.126;5.434;2022-12-29T02:53:21;99981.78;;;9.88;100.00
71791;BME280;59638;52.126;5.434;2022-12-29T02:56:09;99984.81;;;9.93;100.00
71791;BME280;59638;52.126;5.434;2022-12-29T02:58:36;99986.44;;;9.94;100.00
71791;BME280;59638;52.126;5.434;2022-12-29T03:03:48;99980.16;;;9.87;100.00
71791;BME280;59638;52.126;5.434;2022-12-29T03:12:02;99978.91;;;9.73;100.00
71791;BME280;59638;52.126;5.434;2022-12-29T03:15:04;99983.34;;;9.73;100.00
71791;BME280;59638;52.126;5.434;2022-12-29T03:18:04;99978.34;;;9.70;100.00
71791;BME280;59638;52.126;5.434;2022-12-29T03:20:39;99969.28;;;9.64;100.00
71791;BME280;59638;52.126;5.434;2022-12-29T03:23:08;99973.78;;;9.72;100.00
71791;BME280;59638;52.126;5.434;2022-12-29T03:25:47;99985.66;;;9.76;100.00
71791;BME280;59638;52.126;5.434;2022-12-29T03:28:21;99977.13;;;9.82;100.00
71791;BME280;59638;52.126;5.434;2022-12-29T03:30:48;99967.94;;;9.86;100.00
71791;BME280;59638;52.126;5.434;2022-12-29T03:33:18;99961.03;;;9.85;100.00
71791;BME280;59638;52.126;5.434;2022-12-29T03:35:48;99961.59;;;9.71;100.00
71791;BME280;59638;52.126;5.434;2022-12-29T03:38:33;99956.63;;;9.68;100.00
71791;BME280;59638;52.126;5.434;2022-12-29T03:41:04;99960.19;;;9.59;100.00
71791;BME280;59638;52.126;5.434;2022-12-29T03:43:33;99963.34;;;9.44;100.00
71791;BME280;59638;52.126;5.434;2022-12-29T03:45:59;99958.38;;;9.41;100.00
71791;BME280;59638;52.126;5.434;2022-12-29T03:48:26;99968.63;;;9.44;100.00
71791;BME280;59638;52.126;5.434;2022-12-29T03:50:52;99954.69;;;9.52;100.00
71791;BME280;59638;52.126;5.434;2022-12-29T03:53:19;99957.84;;;9.56;100.00
71791;BME280;59638;52.126;5.434;2022-12-29T03:55:45;99959.97;;;9.52;100.00
71791;BME280;59638;52.126;5.434;2022-12-29T03:58:11;99965.28;;;9.42;100.00
71791;BME280;59638;52.126;5.434;2022-12-29T04:00:38;99970.28;;;9.45;100.00
71791;BME280;59638;52.126;5.434;2022-12-29T04:03:04;99967.25;;;9.40;100.00
71791;BME280;59638;52.126;5.434;2022-12-29T04:05:31;99968.91;;;9.41;100.00
71791;BME280;59638;52.126;5.434;2022-12-29T04:07:58;99960.34;;;9.39;100.00
71791;BME280;59638;52.126;5.434;2022-12-29T04:10:24;99963.66;;;9.41;100.00
71791;BME280;59638;52.126;5.434;2022-12-29T04:12:51;99956.19;;;9.37;100.00
71791;BME280;59638;52.126;5.434;2022-12-29T04:15:17;99961.78;;;9.34;100.00
71791;BME280;59638;52.126;5.434;2022-12-29T04:17:44;99965.22;;;9.34;100.00
71791;BME280;59638;52.126;5.434;2022-12-29T04:20:10;99957.78;;;9.47;100.00
71791;BME280;59638;52.126;5.434;2022-12-29T04:23:04;99973.63;;;9.56;100.00
71791;BME280;59638;52.126;5.434;2022-12-29T04:25:31;99981.88;;;9.52;100.00
71791;BME280;59638;52.126;5.434;2022-12-29T04:28:00;99991.03;;;9.48;100.00
71791;BME280;59638;52.126;5.434;2022-12-29T04:30:26;99989.81;;;9.61;100.00
71791;BME280;59638;52.126;5.434;2022-12-29T04:32:53;99991.19;;;9.65;100.00
71791;BME280;59638;52.126;5.434;2022-12-29T04:35:19;99984.31;;;9.72;100.00
71791;BME280;59638;52.126;5.434;2022-12-29T04:37:46;99980.03;;;9.71;100.00
71791;BME280;59638;52.126;5.434;2022-12-29T04:40:12;99985.97;;;9.73;100.00
71791;BME280;59638;52.126;5.434;2022-12-29T04:42:38;99990.88;;;9.68;100.00
71791;BME280;59638;52.126;5.434;2022-12-29T04:45:05;100003.97;;;9.60;100.00
71791;BME280;59638;52.126;5.434;2022-12-29T04:47:32;100008.59;;;9.58;100.00
71791;BME280;59638;52.126;5.434;2022-12-29T04:49:59;100004.81;;;9.60;100.00
71791;BME280;59638;52.126;5.434;2022-12-29T04:52:26;99991.47;;;9.62;100.00
71791;BME280;59638;52.126;5.434;2022-12-29T04:54:52;100016.50;;;9.58;100.00
71791;BME280;59638;52.126;5.434;2022-12-29T04:57:19;100006.63;;;9.60;100.00
71791;BME280;59638;52.126;5.434;2022-12-29T04:59:45;99994.72;;;9.56;100.00
71791;BME280;59638;52.126;5.434;2022-12-29T05:02:11;100009.63;;;9.65;100.00
71791;BME280;59638;52.126;5.434;2022-12-29T05:04:39;100012.94;;;9.67;100.00
71791;BME280;59638;52.126;5.434;2022-12-29T05:07:06;100005.78;;;9.59;100.00
71791;BME280;59638;52.126;5.434;2022-12-29T05:09:32;100018.13;;;9.59;100.00
71791;BME280;59638;52.126;5.434;2022-12-29T05:11:59;100017.66;;;9.63;100.00
71791;BME280;59638;52.126;5.434;2022-12-29T05:14:27;100025.44;;;9.65;100.00
71791;BME280;59638;52.126;5.434;2022-12-29T05:16:53;100025.88;;;9.60;100.00
71791;BME280;59638;52.126;5.434;2022-12-29T05:19:19;100017.44;;;9.57;100.00
71791;BME280;59638;52.126;5.434;2022-12-29T05:21:46;100014.81;;;9.57;100.00
71791;BME280;59638;52.126;5.434;2022-12-29T05:24:12;100020.69;;;9.50;100.00
71791;BME280;59638;52.126;5.434;2022-12-29T05:26:39;100024.63;;;9.46;100.00
71791;BME280;59638;52.126;5.434;2022-12-29T05:29:06;100034.00;;;9.49;100.00
71791;BME280;59638;52.126;5.434;2022-12-29T05:31:32;100030.50;;;9.58;100.00
71791;BME280;59638;52.126;5.434;2022-12-29T05:33:59;100031.97;;;9.61;100.00
71791;BME280;59638;52.126;5.434;2022-12-29T05:36:26;100038.91;;;9.62;100.00
71791;BME280;59638;52.126;5.434;2022-12-29T05:38:59;100036.44;;;9.60;100.00
71791;BME280;59638;52.126;5.434;2022-12-29T05:41:26;100027.69;;;9.60;100.00
71791;BME280;59638;52.126;5.434;2022-12-29T05:43:52;100031.97;;;9.61;100.00
71791;BME280;59638;52.126;5.434;2022-12-29T05:46:18;100016.78;;;9.54;100.00
71791;BME280;59638;52.126;5.434;2022-12-29T05:48:45;100015.13;;;9.53;100.00
71791;BME280;59638;52.126;5.434;2022-12-29T05:51:12;100009.09;;;9.61;100.00
71791;BME280;59638;52.126;5.434;2022-12-29T05:53:39;100024.25;;;9.59;100.00
71791;BME280;59638;52.126;5.434;2022-12-29T05:56:06;100019.41;;;9.54;100.00
71791;BME280;59638;52.126;5.434;2022-12-29T05:58:33;100042.84;;;9.58;100.00
71791;BME280;59638;52.126;5.434;2022-12-29T06:00:59;100042.53;;;9.61;100.00
71791;BME280;59638;52.126;5.434;2022-12-29T06:03:25;100052.06;;;9.62;100.00
71791;BME280;59638;52.126;5.434;2022-12-29T06:05:52;100043.34;;;9.61;100.00
71791;BME280;59638;52.126;5.434;2022-12-29T06:08:18;100023.03;;;9.71;100.00
71791;BME280;59638;52.126;5.434;2022-12-29T06:10:45;100064.81;;;9.84;99.73
71791;BME280;59638;52.126;5.434;2022-12-29T06:13:11;100066.25;;;9.78;100.00
71791;BME280;59638;52.126;5.434;2022-12-29T06:15:38;100061.72;;;9.53;100.00
71791;BME280;59638;52.126;5.434;2022-12-29T06:18:04;100064.09;;;9.29;100.00
71791;BME280;59638;52.126;5.434;2022-12-29T06:20:31;100068.97;;;9.23;100.00
71791;BME280;59638;52.126;5.434;2022-12-29T06:22:57;100054.69;;;9.26;100.00
71791;BME280;59638;52.126;5.434;2022-12-29T06:25:24;100071.31;;;9.26;100.00
71791;BME280;59638;52.126;5.434;2022-12-29T06:27:50;100071.47;;;9.25;100.00
71791;BME280;59638;52.126;5.434;2022-12-29T06:30:17;100045.28;;;9.23;98.70
71791;BME280;59638;52.126;5.434;2022-12-29T06:32:44;100071.28;;;9.09;100.00
71791;BME280;59638;52.126;5.434;2022-12-29T06:35:10;100073.44;;;8.95;100.00
71791;BME280;59638;52.126;5.434;2022-12-29T06:37:36;100088.44;;;8.85;100.00
71791;BME280;59638;52.126;5.434;2022-12-29T06:40:03;100101.22;;;8.80;100.00
71791;BME280;59638;52.126;5.434;2022-12-29T06:42:30;100085.59;;;8.69;100.00
71791;BME280;59638;52.126;5.434;2022-12-29T06:44:56;100095.13;;;8.70;100.00
71791;BME280;59638;52.126;5.434;2022-12-29T06:47:25;100078.09;;;8.74;100.00
71791;BME280;59638;52.126;5.434;2022-12-29T06:49:51;100087.31;;;8.88;100.00
71791;BME280;59638;52.126;5.434;2022-12-29T06:52:18;100079.53;;;8.96;100.00
71791;BME280;59638;52.126;5.434;2022-12-29T06:54:44;100086.69;;;9.04;99.16
71791;BME280;59638;52.126;5.434;2022-12-29T06:57:11;100077.22;;;9.11;99.45
71791;BME280;59638;52.126;5.434;2022-12-29T06:59:37;100075.13;;;9.14;100.00
71791;BME280;59638;52.126;5.434;2022-12-29T07:02:03;100069.72;;;9.16;100.00
71791;BME280;59638;52.126;5.434;2022-12-29T07:04:30;100062.53;;;9.18;98.40
71791;BME280;59638;52.126;5.434;2022-12-29T07:06:57;100055.56;;;9.17;99.85
71791;BME280;59638;52.126;5.434;2022-12-29T07:09:23;100073.91;;;9.09;99.38
71791;BME280;59638;52.126;5.434;2022-12-29T07:11:49;100100.44;;;8.97;100.00
71791;BME280;59638;52.126;5.434;2022-12-29T07:14:16;100099.81;;;8.86;100.00
71791;BME280;59638;52.126;5.434;2022-12-29T07:16:43;100099.63;;;8.60;100.00
71791;BME280;59638;52.126;5.434;2022-12-29T07:19:09;100087.88;;;8.44;100.00
71791;BME280;59638;52.126;5.434;2022-12-29T07:21:35;100110.59;;;8.36;100.00
71791;BME280;59638;52.126;5.434;2022-12-29T07:24:02;100102.41;;;8.29;100.00
71791;BME280;59638;52.126;5.434;2022-12-29T07:26:28;100107.56;;;8.21;100.00
71791;BME280;59638;52.126;5.434;2022-12-29T07:29:02;100114.34;;;8.14;100.00
71791;BME280;59638;52.126;5.434;2022-12-29T07:31:29;100118.50;;;8.07;100.00
71791;BME280;59638;52.126;5.434;2022-12-29T07:33:56;100120.72;;;8.02;100.00
71791;BME280;59638;52.126;5.434;2022-12-29T07:36:22;100114.34;;;7.95;100.00
71791;BME280;59638;52.126;5.434;2022-12-29T07:38:50;100130.66;;;7.88;100.00
71791;BME280;59638;52.126;5.434;2022-12-29T07:41:16;100133.69;;;7.84;100.00
71791;BME280;59638;52.126;5.434;2022-12-29T07:43:47;100128.19;;;7.87;100.00
71791;BME280;59638;52.126;5.434;2022-12-29T07:46:14;100129.00;;;7.87;100.00
71791;BME280;59638;52.126;5.434;2022-12-29T07:49:01;100120.28;;;7.97;100.00
71791;BME280;59638;52.126;5.434;2022-12-29T07:51:27;100127.34;;;8.06;100.00
71791;BME280;59638;52.126;5.434;2022-12-29T07:53:53;100125.13;;;8.21;100.00
71791;BME280;59638;52.126;5.434;2022-12-29T07:56:20;100127.47;;;8.24;100.00
71791;BME280;59638;52.126;5.434;2022-12-29T07:58:46;100116.81;;;8.35;100.00
71791;BME280;59638;52.126;5.434;2022-12-29T08:01:13;100135.91;;;8.47;100.00
71791;BME280;59638;52.126;5.434;2022-12-29T08:03:39;100133.09;;;8.58;100.00
71791;BME280;59638;52.126;5.434;2022-12-29T08:06:09;100127.56;;;8.61;100.00
71791;BME280;59638;52.126;5.434;2022-12-29T08:08:36;100117.59;;;8.64;100.00
71791;BME280;59638;52.126;5.434;2022-12-29T08:11:03;100125.06;;;8.69;100.00
71791;BME280;59638;52.126;5.434;2022-12-29T08:13:29;100118.41;;;8.75;100.00
71791;BME280;59638;52.126;5.434;2022-12-29T08:15:57;100114.78;;;8.76;100.00
71791;BME280;59638;52.126;5.434;2022-12-29T08:18:24;100114.78;;;8.85;100.00
71791;BME280;59638;52.126;5.434;2022-12-29T08:20:51;100105.59;;;8.89;100.00
71791;BME280;59638;52.126;5.434;2022-12-29T08:23:21;100103.06;;;8.97;100.00
71791;BME280;59638;52.126;5.434;2022-12-29T08:25:57;100108.13;;;9.09;100.00
71791;BME280;59638;52.126;5.434;2022-12-29T08:28:23;100106.06;;;9.12;100.00
71791;BME280;59638;52.126;5.434;2022-12-29T08:30:49;100113.50;;;9.17;100.00
71791;BME280;59638;52.126;5.434;2022-12-29T08:33:16;100110.44;;;9.21;99.71
71791;BME280;59638;52.126;5.434;2022-12-29T08:35:42;100110.97;;;9.25;98.67
71791;BME280;59638;52.126;5.434;2022-12-29T08:38:09;100112.34;;;9.29;98.08
71791;BME280;59638;52.126;5.434;2022-12-29T08:40:37;100111.22;;;9.32;98.58
71791;BME280;59638;52.126;5.434;2022-12-29T08:43:04;100108.59;;;9.32;98.45
71791;BME280;59638;52.126;5.434;2022-12-29T08:45:30;100109.53;;;9.31;97.17
71791;BME280;59638;52.126;5.434;2022-12-29T08:47:57;100101.78;;;9.29;96.90
71791;BME280;59638;52.126;5.434;2022-12-29T08:50:23;100117.31;;;9.32;96.43
71791;BME280;59638;52.126;5.434;2022-12-29T08:52:50;100129.78;;;9.30;97.42
71791;BME280;59638;52.126;5.434;2022-12-29T08:55:16;100127.63;;;9.25;96.74
71791;BME280;59638;52.126;5.434;2022-12-29T08:57:43;100122.09;;;9.19;99.49
71791;BME280;59638;52.126;5.434;2022-12-29T09:00:10;100120.63;;;9.07;97.72
71791;BME280;59638;52.126;5.434;2022-12-29T09:02:36;100132.13;;;9.06;98.43
71791;BME280;59638;52.126;5.434;2022-12-29T09:05:03;100144.31;;;9.07;99.79
71791;BME280;59638;52.126;5.434;2022-12-29T09:07:30;100142.09;;;9.12;99.11
71791;BME280;59638;52.126;5.434;2022-12-29T09:09:56;100147.31;;;9.21;97.28
71791;BME280;59638;52.126;5.434;2022-12-29T09:12:23;100126.09;;;9.23;97.08
71791;BME280;59638;52.126;5.434;2022-12-29T09:14:49;100144.16;;;9.18;97.46
71791;BME280;59638;52.126;5.434;2022-12-29T09:17:16;100140.91;;;9.24;96.87
71791;BME280;59638;52.126;5.434;2022-12-29T09:20:01;100134.97;;;9.22;96.81
71791;BME280;59638;52.126;5.434;2022-12-29T09:22:27;100151.44;;;9.24;97.92
71791;BME280;59638;52.126;5.434;2022-12-29T09:24:53;100148.81;;;9.24;97.39
71791;BME280;59638;52.126;5.434;2022-12-29T09:27:20;100156.75;;;9.14;97.68
71791;BME280;59638;52.126;5.434;2022-12-29T09:29:46;100159.13;;;9.08;98.44
71791;BME280;59638;52.126;5.434;2022-12-29T09:32:13;100178.81;;;9.04;98.63
71791;BME280;59638;52.126;5.434;2022-12-29T09:34:44;100167.41;;;8.85;98.76
71791;BME280;59638;52.126;5.434;2022-12-29T09:37:10;100169.66;;;8.61;100.00
71791;BME280;59638;52.126;5.434;2022-12-29T09:39:37;100186.16;;;8.43;100.00
71791;BME280;59638;52.126;5.434;2022-12-29T09:42:22;100191.72;;;8.40;100.00
71791;BME280;59638;52.126;5.434;2022-12-29T09:47:35;100202.59;;;8.16;100.00
71791;BME280;59638;52.126;5.434;2022-12-29T09:50:08;100204.28;;;8.08;100.00
71791;BME280;59638;52.126;5.434;2022-12-29T09:52:48;100206.22;;;8.06;100.00
71791;BME280;59638;52.126;5.434;2022-12-29T09:55:23;100217.28;;;8.09;100.00
71791;BME280;59638;52.126;5.434;2022-12-29T09:58:00;100223.09;;;8.13;100.00
71791;BME280;59638;52.126;5.434;2022-12-29T10:01:22;100215.59;;;8.18;100.00
71791;BME280;59638;52.126;5.434;2022-12-29T10:03:25;100222.25;;;8.22;100.00
71791;BME280;59638;52.126;5.434;2022-12-29T10:08:39;100233.31;;;8.16;100.00
71791;BME280;59638;52.126;5.434;2022-12-29T10:11:32;100231.66;;;8.15;100.00
71791;BME280;59638;52.126;5.434;2022-12-29T10:19:53;100227.53;;;8.22;100.00
71791;BME280;59638;52.126;5.434;2022-12-29T10:24:55;100262.38;;;8.24;100.00
71791;BME280;59638;52.126;5.434;2022-12-29T10:27:23;100258.22;;;8.31;100.00
71791;BME280;59638;52.126;5.434;2022-12-29T10:29:56;100264.63;;;8.38;100.00
71791;BME280;59638;52.126;5.434;2022-12-29T10:32:38;100256.75;;;8.38;100.00
71791;BME280;59638;52.126;5.434;2022-12-29T10:35:28;100279.84;;;8.35;100.00
71791;BME280;59638;52.126;5.434;2022-12-29T10:38:01;100267.38;;;8.27;100.00
71791;BME280;59638;52.126;5.434;2022-12-29T10:40:40;100290.34;;;8.25;100.00
71791;BME280;59638;52.126;5.434;2022-12-29T10:43:28;100290.34;;;8.25;100.00
71791;BME280;59638;52.126;5.434;2022-12-29T10:45:58;100290.34;;;8.25;100.00
71791;BME280;59638;52.126;5.434;2022-12-29T10:48:29;100296.31;;;8.27;100.00
71791;BME280;59638;52.126;5.434;2022-12-29T10:50:59;100296.75;;;8.32;100.00
71791;BME280;59638;52.126;5.434;2022-12-29T10:53:35;100313.09;;;8.36;100.00
71791;BME280;59638;52.126;5.434;2022-12-29T10:56:14;100305.88;;;8.38;100.00
71791;BME280;59638;52.126;5.434;2022-12-29T10:58:41;100330.78;;;8.34;100.00
71791;BME280;59638;52.126;5.434;2022-12-29T11:01:14;100322.16;;;8.32;100.00
71791;BME280;59638;52.126;5.434;2022-12-29T11:03:58;100326.59;;;8.31;100.00
71791;BME280;59638;52.126;5.434;2022-12-29T11:06:28;100344.31;;;8.29;100.00
71791;BME280;59638;52.126;5.434;2022-12-29T11:08:58;100344.47;;;8.28;100.00
71791;BME280;59638;52.126;5.434;2022-12-29T11:11:33;100354.69;;;8.31;100.00
71791;BME280;59638;52.126;5.434;2022-12-29T11:14:08;100340.72;;;8.30;100.00
71791;BME280;59638;52.126;5.434;2022-12-29T11:16:36;100361.50;;;8.33;100.00
71791;BME280;59638;52.126;5.434;2022-12-29T11:19:03;100356.81;;;8.37;100.00
71791;BME280;59638;52.126;5.434;2022-12-29T11:23:58;100367.94;;;8.60;100.00
71791;BME280;59638;52.126;5.434;2022-12-29T11:26:27;100368.22;;;8.76;100.00
71791;BME280;59638;52.126;5.434;2022-12-29T11:31:54;100361.75;;;9.66;100.00
71791;BME280;59638;52.126;5.434;2022-12-29T11:34:31;100371.50;;;9.56;100.00
71791;BME280;59638;52.126;5.434;2022-12-29T11:37:10;100375.41;;;9.51;100.00
71791;BME280;59638;52.126;5.434;2022-12-29T11:42:32;100382.50;;;8.83;100.00
71791;BME280;59638;52.126;5.434;2022-12-29T11:45:24;100390.25;;;8.65;100.00
71791;BME280;59638;52.126;5.434;2022-12-29T11:47:54;100396.47;;;8.55;100.00
71791;BME280;59638;52.126;5.434;2022-12-29T11:50:25;100394.25;;;8.60;100.00
71791;BME280;59638;52.126;5.434;2022-12-29T11:58:31;100399.22;;;9.60;100.00
71791;BME280;59638;52.126;5.434;2022-12-29T12:03:56;100401.75;;;9.03;100.00
71791;BME280;59638;52.126;5.434;2022-12-29T12:06:27;100410.34;;;8.95;100.00
71791;BME280;59638;52.126;5.434;2022-12-29T12:08:56;100403.28;;;8.77;100.00
71791;BME280;59638;52.126;5.434;2022-12-29T12:11:34;100401.19;;;8.70;100.00
71791;BME280;59638;52.126;5.434;2022-12-29T12:14:13;100435.63;;;8.58;100.00
71791;BME280;59638;52.126;5.434;2022-12-29T12:16:47;100414.44;;;8.50;100.00
71791;BME280;59638;52.126;5.434;2022-12-29T12:19:41;100409.72;;;8.43;100.00
71791;BME280;59638;52.126;5.434;2022-12-29T12:24:46;100424.72;;;8.53;100.00
71791;BME280;59638;52.126;5.434;2022-12-29T12:27:24;100426.91;;;8.57;100.00
71791;BME280;59638;52.126;5.434;2022-12-29T12:29:59;100421.56;;;8.68;100.00
71791;BME280;59638;52.126;5.434;2022-12-29T12:32:48;100427.97;;;8.95;100.00
71791;BME280;59638;52.126;5.434;2022-12-29T12:43:51;100432.81;;;9.19;100.00
71791;BME280;59638;52.126;5.434;2022-12-29T12:55:23;100429.03;;;9.50;100.00
71791;BME280;59638;52.126;5.434;2022-12-29T13:03:37;100448.88;;;9.35;100.00
71791;BME280;59638;52.126;5.434;2022-12-29T13:06:31;100451.94;;;9.31;100.00
71791;BME280;59638;52.126;5.434;2022-12-29T13:09:29;100455.28;;;9.33;100.00
71791;BME280;59638;52.126;5.434;2022-12-29T13:17:32;100448.47;;;9.30;100.00
71791;BME280;59638;52.126;5.434;2022-12-29T13:23:06;100458.44;;;9.36;100.00
71791;BME280;59638;52.126;5.434;2022-12-29T13:25:54;100464.97;;;9.32;100.00
71791;BME280;59638;52.126;5.434;2022-12-29T13:28:30;100460.13;;;9.27;100.00
71791;BME280;59638;52.126;5.434;2022-12-29T13:31:10;100473.84;;;9.21;100.00
71791;BME280;59638;52.126;5.434;2022-12-29T13:33:58;100460.00;;;9.19;100.00
71791;BME280;59638;52.126;5.434;2022-12-29T13:36:40;100473.31;;;9.18;100.00
71791;BME280;59638;52.126;5.434;2022-12-29T13:39:34;100466.63;;;9.14;100.00
71791;BME280;59638;52.126;5.434;2022-12-29T13:42:03;100464.00;;;9.14;100.00
71791;BME280;59638;52.126;5.434;2022-12-29T13:44:46;100485.06;;;9.14;100.00
71791;BME280;59638;52.126;5.434;2022-12-29T13:47:26;100480.50;;;9.16;100.00
71791;BME280;59638;52.126;5.434;2022-12-29T13:49:54;100476.47;;;9.12;100.00
71791;BME280;59638;52.126;5.434;2022-12-29T13:52:35;100482.44;;;9.14;100.00
71791;BME280;59638;52.126;5.434;2022-12-29T13:55:45;100476.47;;;9.12;100.00
71791;BME280;59638;52.126;5.434;2022-12-29T13:58:20;100474.09;;;9.09;100.00
71791;BME280;59638;52.126;5.434;2022-12-29T14:01:02;100473.16;;;9.19;100.00
71791;BME280;59638;52.126;5.434;2022-12-29T14:04:03;100475.22;;;9.16;100.00
71791;BME280;59638;52.126;5.434;2022-12-29T14:06:36;100484.25;;;9.13;100.00
71791;BME280;59638;52.126;5.434;2022-12-29T14:12:00;100492.00;;;9.05;100.00
71791;BME280;59638;52.126;5.434;2022-12-29T14:14:30;100501.94;;;8.92;100.00
71791;BME280;59638;52.126;5.434;2022-12-29T14:17:09;100511.88;;;8.79;100.00
71791;BME280;59638;52.126;5.434;2022-12-29T14:19:43;100497.28;;;8.65;100.00
71791;BME280;59638;52.126;5.434;2022-12-29T14:22:10;100507.47;;;8.49;100.00
71791;BME280;59638;52.126;5.434;2022-12-29T14:24:43;100518.47;;;8.33;100.00
71791;BME280;59638;52.126;5.434;2022-12-29T14:34:55;100518.91;;;8.17;100.00
71791;BME280;59638;52.126;5.434;2022-12-29T14:37:35;100515.84;;;8.12;100.00
71791;BME280;59638;52.126;5.434;2022-12-29T14:40:21;100532.66;;;8.00;100.00
71791;BME280;59638;52.126;5.434;2022-12-29T14:42:51;100528.44;;;7.87;100.00
71791;BME280;59638;52.126;5.434;2022-12-29T14:47:47;100519.44;;;7.69;100.00
71791;BME280;59638;52.126;5.434;2022-12-29T14:52:56;100520.59;;;7.55;100.00
71791;BME280;59638;52.126;5.434;2022-12-29T15:00:42;100532.88;;;7.55;100.00
71791;BME280;59638;52.126;5.434;2022-12-29T15:03:29;100532.63;;;7.58;100.00
71791;BME280;59638;52.126;5.434;2022-12-29T15:06:04;100533.78;;;7.65;100.00
71791;BME280;59638;52.126;5.434;2022-12-29T15:08:38;100518.00;;;7.65;100.00
71791;BME280;59638;52.126;5.434;2022-12-29T15:11:25;100528.28;;;7.68;100.00
71791;BME280;59638;52.126;5.434;2022-12-29T15:13:57;100528.53;;;7.65;100.00
71791;BME280;59638;52.126;5.434;2022-12-29T15:16:26;100532.13;;;7.64;100.00